createdAt,value
2022-12-05T00:00:33.426Z,50.63
2022-12-05T00:03:04.558Z,50.70
2022-12-05T00:05:38.237Z,45.80
2022-12-05T00:08:25.292Z,54.10
2022-12-05T00:10:52.862Z,50.90
2022-12-05T00:13:20.306Z,51.55
2022-12-05T00:15:49.188Z,44.67
2022-12-05T00:18:20.904Z,52.28
2022-12-05T00:23:22.936Z,45.22
2022-12-05T00:25:51.748Z,59.88
2022-12-05T00:28:26.043Z,51.15
2022-12-05T00:30:56.709Z,53.28
2022-12-05T00:33:24.926Z,55.20
2022-12-05T00:35:55.051Z,57.78
2022-12-05T00:38:28.693Z,58.15
2022-12-05T00:40:56.105Z,48.38
2022-12-05T00:43:25.667Z,51.90
2022-12-05T00:45:53.133Z,56.17
2022-12-05T00:48:25.263Z,53.50
2022-12-05T00:51:12.272Z,58.88
2022-12-05T00:53:41.706Z,50.92
2022-12-05T00:56:15.778Z,51.83
2022-12-05T00:58:43.254Z,51.80
2022-12-05T01:01:18.396Z,66.28
2022-12-05T01:03:49.547Z,54.60
2022-12-05T01:06:17.207Z,60.00
2022-12-05T01:08:45.643Z,56.08
2022-12-05T01:11:25.790Z,55.78
2022-12-05T01:13:55.542Z,52.80
2022-12-05T01:16:24.332Z,57.55
2022-12-05T01:18:54.849Z,50.42
2022-12-05T01:21:24.127Z,63.92
2022-12-05T01:23:51.932Z,64.50
2022-12-05T01:28:47.946Z,58.88
2022-12-05T01:31:18.728Z,59.58
2022-12-05T01:33:46.381Z,59.28
2022-12-05T01:36:15.393Z,64.93
2022-12-05T01:38:46.641Z,64.20
2022-12-05T01:41:19.232Z,69.35
2022-12-05T01:44:03.319Z,68.68
2022-12-05T01:46:35.312Z,68.65
2022-12-05T01:49:06.973Z,60.58
2022-12-05T01:51:36.765Z,60.70
2022-12-05T01:54:05.477Z,71.95
2022-12-05T01:56:33.927Z,71.93
2022-12-05T01:59:05.928Z,70.10
2022-12-05T02:01:35.867Z,64.55
2022-12-05T02:04:04.640Z,72.40
2022-12-05T02:06:35.871Z,69.68
2022-12-05T02:09:07.704Z,83.57
2022-12-05T02:11:35.457Z,68.20
2022-12-05T02:14:16.311Z,73.82
2022-12-05T02:16:52.719Z,65.93
2022-12-05T02:19:43.927Z,71.30
2022-12-05T02:22:32.912Z,70.43
2022-12-05T02:25:18.806Z,72.78
2022-12-05T02:27:55.147Z,64.95
2022-12-05T02:30:24.735Z,71.15
2022-12-05T02:33:04.399Z,77.97
2022-12-05T02:35:37.257Z,64.22
2022-12-05T02:38:12.095Z,69.15
2022-12-05T02:40:47.314Z,68.13
2022-12-05T02:43:19.588Z,66.18
2022-12-05T02:45:57.815Z,72.40
2022-12-05T02:48:31.296Z,66.07
2022-12-05T02:51:00.613Z,64.60
2022-12-05T02:53:32.329Z,72.20
2022-12-05T02:56:04.773Z,66.38
2022-12-05T02:58:35.342Z,69.28
2022-12-05T03:01:06.831Z,71.63
2022-12-05T03:03:35.673Z,67.80
2022-12-05T03:06:07.369Z,66.20
2022-12-05T03:08:46.316Z,59.88
2022-12-05T03:11:15.535Z,67.53
2022-12-05T03:13:46.247Z,63.22
2022-12-05T03:16:19.376Z,62.40
2022-12-05T03:18:49.031Z,67.72
2022-12-05T03:21:25.151Z,60.97
2022-12-05T03:23:56.921Z,70.32
2022-12-05T03:26:39.011Z,68.45
2022-12-05T03:29:20.012Z,68.03
2022-12-05T03:31:54.194Z,71.65
2022-12-05T03:34:27.011Z,63.55
2022-12-05T03:36:58.099Z,63.05
2022-12-05T03:39:30.027Z,57.42
2022-12-05T03:42:04.247Z,65.65
2022-12-05T03:44:36.234Z,62.00
2022-12-05T03:47:11.436Z,55.40
2022-12-05T03:49:43.969Z,55.70
2022-12-05T03:52:23.047Z,58.10
2022-12-05T03:54:55.272Z,53.92
2022-12-05T03:57:24.418Z,56.72
2022-12-05T03:59:55.218Z,57.38
2022-12-05T04:02:34.685Z,57.55
2022-12-05T04:05:05.709Z,53.30
2022-12-05T04:07:35.166Z,60.70
2022-12-05T04:10:07.461Z,61.53
2022-12-05T04:12:40.746Z,62.85
2022-12-05T04:15:10.675Z,58.70
2022-12-05T04:17:40.871Z,68.72
2022-12-05T04:20:29.641Z,54.42
2022-12-05T04:22:57.291Z,57.63
2022-12-05T04:25:33.823Z,61.15
2022-12-05T04:28:16.736Z,61.08
2022-12-05T04:30:56.041Z,61.28
2022-12-05T04:33:30.489Z,59.55
2022-12-05T04:36:03.545Z,67.70
2022-12-05T04:38:38.909Z,62.80
2022-12-05T04:41:12.818Z,67.18
2022-12-05T04:43:47.033Z,65.10
2022-12-05T04:46:20.116Z,63.10
2022-12-05T04:48:55.884Z,70.47
2022-12-05T04:51:25.003Z,64.43
2022-12-05T04:53:57.471Z,77.97
2022-12-05T04:56:30.231Z,71.20
2022-12-05T04:58:57.867Z,64.40
2022-12-05T05:01:27.216Z,61.38
2022-12-05T05:04:01.987Z,67.80
2022-12-05T05:06:30.600Z,60.08
2022-12-05T05:08:58.991Z,61.05
2022-12-05T05:11:27.853Z,58.35
2022-12-05T05:13:55.690Z,59.42
2022-12-05T05:18:51.403Z,56.63
2022-12-05T05:21:24.627Z,71.95
2022-12-05T05:23:55.460Z,62.08
2022-12-05T05:26:23.699Z,68.30
2022-12-05T05:28:52.651Z,63.30
2022-12-05T05:31:20.845Z,67.05
2022-12-05T05:33:51.354Z,68.25
2022-12-05T05:36:19.123Z,65.00
2022-12-05T05:38:51.621Z,64.03
2022-12-05T05:41:20.284Z,57.97
2022-12-05T05:43:48.467Z,62.90
2022-12-05T05:46:17.004Z,61.42
2022-12-05T05:48:44.685Z,61.97
2022-12-05T05:51:13.240Z,75.75
2022-12-05T05:53:43.146Z,70.43
2022-12-05T05:56:20.149Z,68.18
2022-12-05T05:58:49.603Z,64.03
2022-12-05T06:01:21.284Z,57.65
2022-12-05T06:03:53.421Z,67.97
2022-12-05T06:06:21.570Z,71.15
2022-12-05T06:08:49.424Z,79.22
2022-12-05T06:13:52.275Z,61.90
2022-12-05T06:16:21.169Z,61.90
2022-12-05T06:18:51.953Z,68.65
2022-12-05T06:21:19.529Z,62.10
2022-12-05T06:23:47.258Z,58.58
2022-12-05T06:26:16.098Z,70.95
2022-12-05T06:28:44.597Z,60.20
2022-12-05T06:31:19.829Z,67.35
2022-12-05T06:33:49.833Z,62.78
2022-12-05T06:36:19.990Z,67.25
2022-12-05T06:38:47.586Z,66.95
2022-12-05T06:41:16.345Z,54.15
2022-12-05T06:43:47.080Z,53.83
2022-12-05T06:46:16.708Z,63.22
2022-12-05T06:48:47.341Z,54.78
2022-12-05T06:51:15.986Z,53.40
2022-12-05T06:53:43.563Z,61.33
2022-12-05T06:56:15.245Z,58.17
2022-12-05T06:58:43.245Z,58.00
2022-12-05T07:01:26.145Z,51.97
2022-12-05T07:03:57.646Z,47.80
2022-12-05T07:06:25.321Z,49.47
2022-12-05T07:08:52.711Z,58.95
2022-12-05T07:11:23.082Z,60.40
2022-12-05T07:13:50.789Z,67.07
2022-12-05T07:16:18.482Z,53.17
2022-12-05T07:21:16.396Z,56.97
2022-12-05T07:23:46.942Z,54.95
2022-12-05T07:26:15.303Z,58.67
2022-12-05T07:28:43.031Z,63.92
2022-12-05T07:31:11.817Z,71.95
2022-12-05T07:33:39.446Z,65.47
2022-12-05T07:36:09.124Z,56.70
2022-12-05T07:38:38.105Z,68.53
2022-12-05T07:41:11.631Z,54.42
2022-12-05T07:43:43.238Z,60.10
2022-12-05T07:46:13.725Z,66.07
2022-12-05T07:48:41.159Z,59.95
2022-12-05T07:51:09.363Z,73.75
2022-12-05T07:53:41.841Z,59.50
2022-12-05T07:56:10.381Z,50.60
2022-12-05T07:58:41.146Z,64.10
2022-12-05T08:01:09.330Z,57.70
2022-12-05T08:03:38.680Z,57.45
2022-12-05T08:06:12.830Z,62.40
2022-12-05T08:08:44.976Z,60.22
2022-12-05T08:11:19.157Z,57.30
2022-12-05T08:13:46.639Z,72.10
2022-12-05T08:16:15.114Z,60.83
2022-12-05T08:18:42.953Z,66.88
2022-12-05T08:23:44.641Z,60.95
2022-12-05T08:26:16.601Z,50.40
2022-12-05T08:28:45.887Z,55.72
2022-12-05T08:31:17.621Z,54.90
2022-12-05T08:34:00.652Z,82.47
2022-12-05T08:36:30.351Z,68.43
2022-12-05T08:39:00.096Z,49.83
2022-12-05T08:41:31.035Z,57.13
2022-12-05T08:44:03.223Z,62.30
2022-12-05T08:46:36.399Z,66.82
2022-12-05T08:49:07.222Z,61.25
2022-12-05T08:51:36.902Z,51.03
2022-12-05T08:54:05.889Z,63.75
2022-12-05T08:56:35.293Z,51.78
2022-12-05T08:59:05.647Z,62.95
2022-12-05T09:01:34.541Z,60.42
2022-12-05T09:04:04.507Z,55.60
2022-12-05T09:06:35.621Z,66.85
2022-12-05T09:09:05.532Z,61.33
2022-12-05T09:11:40.711Z,70.00
2022-12-05T09:14:18.331Z,61.72
2022-12-05T09:16:52.066Z,61.35
2022-12-05T09:19:25.803Z,67.35
2022-12-05T09:21:53.164Z,76.78
2022-12-05T09:24:20.871Z,55.97
2022-12-05T09:26:50.931Z,67.88
2022-12-05T09:29:19.518Z,55.80
2022-12-05T09:31:49.628Z,60.83
2022-12-05T09:34:22.450Z,74.18
2022-12-05T09:37:10.305Z,57.38
2022-12-05T09:39:48.967Z,61.75
2022-12-05T09:42:25.945Z,61.05
2022-12-05T09:45:03.219Z,54.05
2022-12-05T09:47:37.086Z,61.40
2022-12-05T09:50:13.670Z,55.05
2022-12-05T09:52:44.521Z,58.50
2022-12-05T09:58:04.643Z,59.88
2022-12-05T10:00:35.179Z,55.72
2022-12-05T10:03:13.102Z,70.45
2022-12-05T10:05:43.537Z,68.65
2022-12-05T10:08:14.851Z,59.30
2022-12-05T10:10:46.987Z,64.95
2022-12-05T10:13:20.596Z,51.83
2022-12-05T10:15:54.328Z,57.17
2022-12-05T10:18:29.594Z,63.70
2022-12-05T10:21:00.986Z,60.78
2022-12-05T10:23:56.500Z,61.60
2022-12-05T10:26:26.444Z,75.03
2022-12-05T10:28:58.860Z,65.35
2022-12-05T10:31:29.676Z,52.97
2022-12-05T10:33:59.386Z,58.55
2022-12-05T10:36:26.852Z,80.53
2022-12-05T10:38:56.700Z,60.22
2022-12-05T10:41:25.929Z,52.83
2022-12-05T10:43:55.745Z,66.50
2022-12-05T10:46:23.522Z,57.63
2022-12-05T10:48:53.765Z,75.95
2022-12-05T10:51:34.069Z,67.00
2022-12-05T10:54:03.927Z,73.28
2022-12-05T10:56:42.668Z,70.00
2022-12-05T10:59:18.913Z,69.60
2022-12-05T11:01:49.662Z,68.97
2022-12-05T11:04:25.407Z,60.65
2022-12-05T11:06:54.945Z,61.42
2022-12-05T11:09:23.499Z,66.88
2022-12-05T11:12:10.828Z,70.65
2022-12-05T11:14:54.626Z,81.00
2022-12-05T11:17:24.327Z,89.50
2022-12-05T11:19:55.167Z,83.10
2022-12-05T11:22:30.888Z,87.40
2022-12-05T11:25:01.297Z,68.18
2022-12-05T11:27:30.523Z,62.47
2022-12-05T11:30:06.909Z,72.40
2022-12-05T11:32:37.085Z,65.22
2022-12-05T11:35:13.458Z,57.03
2022-12-05T11:37:45.362Z,68.95
2022-12-05T11:40:28.430Z,70.50
2022-12-05T11:43:11.492Z,71.28
2022-12-05T11:45:46.338Z,62.85
2022-12-05T11:48:22.229Z,58.67
2022-12-05T11:50:53.503Z,90.10
2022-12-05T11:53:31.867Z,64.30
2022-12-05T11:56:04.181Z,64.65
2022-12-05T11:58:39.495Z,64.72
2022-12-05T12:01:13.061Z,56.25
2022-12-05T12:03:50.246Z,79.75
2022-12-05T12:06:29.424Z,63.45
2022-12-05T12:09:03.556Z,70.30
2022-12-05T12:11:32.378Z,64.20
2022-12-05T12:14:03.592Z,59.05
2022-12-05T12:16:40.407Z,66.07
2022-12-05T12:19:23.034Z,66.87
2022-12-05T12:21:56.086Z,59.85
2022-12-05T12:24:31.042Z,70.20
2022-12-05T12:27:07.383Z,81.18
2022-12-05T12:29:46.523Z,71.43
2022-12-05T12:32:26.715Z,67.93
2022-12-05T12:35:14.071Z,84.78
2022-12-05T12:37:49.820Z,54.08
2022-12-05T12:40:32.090Z,66.05
2022-12-05T12:43:21.133Z,75.13
2022-12-05T12:46:08.093Z,86.55
2022-12-05T12:48:50.938Z,65.95
2022-12-05T12:51:19.858Z,67.93
2022-12-05T12:54:07.311Z,61.05
2022-12-05T12:56:45.290Z,63.35
2022-12-05T12:59:30.862Z,59.30
2022-12-05T13:02:04.700Z,52.75
2022-12-05T13:04:44.847Z,56.03
2022-12-05T13:07:19.264Z,77.25
2022-12-05T13:09:52.121Z,53.10
2022-12-05T13:12:22.814Z,51.70
2022-12-05T13:14:55.867Z,48.05
2022-12-05T13:17:26.769Z,73.10
2022-12-05T13:19:57.549Z,67.35
2022-12-05T13:22:29.145Z,82.97
2022-12-05T13:24:59.849Z,70.60
2022-12-05T13:27:28.653Z,55.65
2022-12-05T13:29:58.519Z,81.07
2022-12-05T13:32:29.768Z,84.07
2022-12-05T13:35:05.392Z,52.47
2022-12-05T13:37:53.450Z,53.97
2022-12-05T13:40:46.718Z,72.90
2022-12-05T13:43:15.747Z,52.42
2022-12-05T13:45:52.533Z,65.72
2022-12-05T13:48:22.900Z,66.00
2022-12-05T13:50:54.696Z,52.95
2022-12-05T13:53:29.928Z,73.22
2022-12-05T13:56:01.892Z,75.00
2022-12-05T13:58:45.363Z,62.33
2022-12-05T14:01:52.002Z,57.70
2022-12-05T14:04:42.940Z,59.00
2022-12-05T14:07:12.127Z,67.30
2022-12-05T14:09:54.631Z,45.70
2022-12-05T14:12:33.452Z,52.63
2022-12-05T14:15:02.137Z,54.30
2022-12-05T14:17:30.673Z,53.97
2022-12-05T14:20:04.085Z,54.05
2022-12-05T14:22:45.912Z,45.35
2022-12-05T14:25:20.768Z,52.65
2022-12-05T14:27:56.858Z,67.30
2022-12-05T14:30:26.554Z,58.35
2022-12-05T14:32:57.106Z,54.30
2022-12-05T14:35:29.888Z,45.17
2022-12-05T14:38:02.227Z,55.80
2022-12-05T14:40:32.213Z,50.80
2022-12-05T14:43:01.950Z,52.20
2022-12-05T14:45:31.759Z,53.40
2022-12-05T14:48:01.471Z,62.25
2022-12-05T14:50:38.455Z,53.05
2022-12-05T14:56:21.427Z,51.47
2022-12-05T14:59:04.292Z,51.25
2022-12-05T15:01:33.955Z,52.05
2022-12-05T15:04:15.404Z,47.00
2022-12-05T15:06:45.712Z,49.58
2022-12-05T15:09:37.045Z,43.47
2022-12-05T15:12:09.714Z,46.00
2022-12-05T15:14:40.731Z,47.03
2022-12-05T15:17:11.970Z,49.05
2022-12-05T15:19:43.701Z,61.70
2022-12-05T15:22:14.158Z,47.90
2022-12-05T15:24:45.615Z,50.05
2022-12-05T15:27:19.297Z,47.28
2022-12-05T15:29:51.211Z,49.78
2022-12-05T15:32:22.195Z,52.08
2022-12-05T15:34:54.312Z,61.08
2022-12-05T15:37:24.199Z,47.95
2022-12-05T15:39:54.518Z,51.22
2022-12-05T15:42:28.916Z,49.22
2022-12-05T15:45:01.590Z,51.58
2022-12-05T15:47:29.110Z,40.95
2022-12-05T15:49:58.979Z,51.53
2022-12-05T15:52:33.010Z,41.55
2022-12-05T15:55:05.312Z,47.85
2022-12-05T15:57:35.306Z,44.55
2022-12-05T16:00:06.753Z,50.55
2022-12-05T16:02:46.628Z,43.65
2022-12-05T16:05:28.276Z,51.78
2022-12-05T16:08:00.011Z,51.53
2022-12-05T16:10:31.575Z,43.08
2022-12-05T16:13:06.860Z,44.58
2022-12-05T16:15:37.733Z,46.97
2022-12-05T16:18:08.982Z,43.95
2022-12-05T16:20:37.087Z,52.22
2022-12-05T16:23:06.242Z,41.70
2022-12-05T16:25:36.225Z,50.55
2022-12-05T16:28:16.200Z,50.83
2022-12-05T16:30:54.130Z,42.72
2022-12-05T16:33:25.030Z,43.58
2022-12-05T16:35:56.094Z,46.17
2022-12-05T16:38:25.468Z,49.35
2022-12-05T16:40:58.278Z,54.08
2022-12-05T16:43:27.249Z,42.97
2022-12-05T16:45:56.375Z,43.88
2022-12-05T16:48:29.499Z,46.63
2022-12-05T16:51:15.531Z,46.30
2022-12-05T16:53:45.797Z,43.83
2022-12-05T16:56:19.621Z,37.20
2022-12-05T16:58:47.528Z,41.47
2022-12-05T17:01:19.955Z,36.40
2022-12-05T17:03:50.401Z,36.47
2022-12-05T17:06:19.113Z,34.22
2022-12-05T17:08:48.331Z,41.15
2022-12-05T17:11:20.712Z,45.40
2022-12-05T17:13:48.413Z,43.67
2022-12-05T17:16:18.315Z,44.40
2022-12-05T17:18:50.217Z,39.60
2022-12-05T17:21:18.775Z,48.92
2022-12-05T17:23:48.010Z,44.85
2022-12-05T17:26:18.814Z,36.80
2022-12-05T17:28:46.619Z,40.33
2022-12-05T17:31:17.653Z,43.67
2022-12-05T17:33:47.557Z,35.88
2022-12-05T17:36:15.070Z,32.70
2022-12-05T17:38:44.666Z,37.78
2022-12-05T17:41:16.321Z,33.10
2022-12-05T17:43:46.550Z,41.60
2022-12-05T17:46:15.921Z,46.17
2022-12-05T17:48:43.357Z,36.85
2022-12-05T17:51:18.073Z,33.15
2022-12-05T17:53:47.638Z,37.90
2022-12-05T17:56:18.222Z,41.15
2022-12-05T17:58:47.157Z,33.75
2022-12-05T18:01:16.047Z,36.67
2022-12-05T18:03:43.632Z,33.53
2022-12-05T18:06:14.146Z,33.33
2022-12-05T18:08:43.893Z,43.13
2022-12-05T18:11:13.367Z,35.67
2022-12-05T18:13:40.794Z,32.33
2022-12-05T18:16:09.758Z,43.05
2022-12-05T18:18:37.325Z,50.30
2022-12-05T18:21:12.169Z,41.40
2022-12-05T18:23:40.137Z,39.33
2022-12-05T18:26:08.072Z,41.55
2022-12-05T18:28:36.998Z,40.45
2022-12-05T18:31:05.704Z,40.53
2022-12-05T18:33:34.393Z,37.15
2022-12-05T18:36:04.913Z,39.75
2022-12-05T18:38:32.374Z,33.30
2022-12-05T18:41:03.756Z,47.80
2022-12-05T18:43:31.793Z,46.55
2022-12-05T18:46:00.422Z,36.53
2022-12-05T18:48:47.171Z,37.03
2022-12-05T18:51:17.818Z,43.60
2022-12-05T18:53:51.374Z,36.90
2022-12-05T18:56:22.691Z,37.70
2022-12-05T18:58:53.699Z,43.03
2022-12-05T19:01:21.922Z,38.40
2022-12-05T19:03:53.099Z,37.38
2022-12-05T19:06:23.103Z,49.65
2022-12-05T19:08:53.866Z,46.58
2022-12-05T19:11:25.972Z,42.53
2022-12-05T19:13:56.494Z,44.70
2022-12-05T19:16:30.227Z,52.88
2022-12-05T19:18:59.165Z,56.35
2022-12-05T19:21:29.981Z,56.67
2022-12-05T19:23:57.846Z,44.53
2022-12-05T19:28:54.817Z,53.33
2022-12-05T19:31:23.370Z,59.00
2022-12-05T19:33:52.302Z,63.45
2022-12-05T19:36:22.522Z,65.60
2022-12-05T19:38:52.386Z,56.58
2022-12-05T19:41:20.660Z,54.53
2022-12-05T19:43:48.042Z,60.65
2022-12-05T19:46:16.452Z,62.20
2022-12-05T19:48:44.134Z,60.25
2022-12-05T19:51:11.623Z,73.38
2022-12-05T19:53:47.520Z,48.00
2022-12-05T19:56:22.348Z,53.50
2022-12-05T19:58:52.010Z,49.97
2022-12-05T20:01:24.107Z,54.15
2022-12-05T20:03:56.374Z,49.53
2022-12-05T20:06:24.032Z,62.05
2022-12-05T20:08:52.393Z,63.55
2022-12-05T20:11:24.976Z,52.25
2022-12-05T20:14:00.892Z,52.60
2022-12-05T20:16:33.567Z,48.22
2022-12-05T20:19:01.700Z,49.17
2022-12-05T20:21:31.451Z,49.83
2022-12-05T20:24:00.685Z,49.05
2022-12-05T20:26:39.848Z,47.45
2022-12-05T20:29:09.921Z,50.17
2022-12-05T20:31:40.097Z,45.92
2022-12-05T20:34:09.330Z,50.45
2022-12-05T20:36:37.388Z,51.65
2022-12-05T20:39:06.420Z,52.40
2022-12-05T20:41:37.363Z,61.95
2022-12-05T20:44:05.975Z,55.58
2022-12-05T20:46:34.950Z,61.22
2022-12-05T20:49:02.661Z,55.88
2022-12-05T20:51:32.314Z,43.05
2022-12-05T20:54:03.407Z,73.97
2022-12-05T20:56:34.742Z,49.35
2022-12-05T20:59:08.083Z,51.20
2022-12-05T21:01:43.550Z,60.53
2022-12-05T21:04:12.072Z,54.88
2022-12-05T21:06:42.294Z,63.63
2022-12-05T21:09:15.095Z,50.88
2022-12-05T21:11:42.955Z,62.65
2022-12-05T21:14:19.180Z,52.88
2022-12-05T21:16:47.209Z,59.33
2022-12-05T21:19:14.654Z,68.25
2022-12-05T21:21:43.639Z,54.65
2022-12-05T21:24:11.126Z,63.63
2022-12-05T21:26:38.909Z,51.13
2022-12-05T21:31:36.228Z,51.22
2022-12-05T21:34:07.600Z,59.78
2022-12-05T21:36:43.385Z,48.78
2022-12-05T21:39:11.889Z,53.15
2022-12-05T21:41:45.368Z,47.63
2022-12-05T21:44:14.735Z,55.05
2022-12-05T21:46:44.911Z,60.30
2022-12-05T21:49:12.390Z,65.97
2022-12-05T21:51:42.241Z,51.22
2022-12-05T21:54:09.896Z,51.20
2022-12-05T21:56:38.838Z,53.88
2022-12-05T21:59:06.323Z,46.03
2022-12-05T22:01:33.872Z,59.20
2022-12-05T22:04:03.251Z,49.05
2022-12-05T22:06:34.272Z,51.72
2022-12-05T22:09:02.317Z,48.40
2022-12-05T22:11:29.885Z,56.67
2022-12-05T22:13:57.618Z,81.63
2022-12-05T22:16:32.848Z,59.30
2022-12-05T22:19:03.218Z,57.05
2022-12-05T22:21:37.018Z,69.05
2022-12-05T22:24:04.545Z,61.05
2022-12-05T22:26:37.255Z,64.53
2022-12-05T22:29:05.087Z,52.33
2022-12-05T22:31:33.116Z,54.80
2022-12-05T22:34:00.610Z,56.17
2022-12-05T22:36:27.990Z,72.78
2022-12-05T22:38:56.813Z,50.53
2022-12-05T22:41:27.874Z,73.03
2022-12-05T22:43:56.306Z,93.40
2022-12-05T22:46:26.778Z,63.45
2022-12-05T22:48:54.506Z,66.20
2022-12-05T22:51:23.654Z,55.80
2022-12-05T22:53:51.421Z,56.20
2022-12-05T22:58:56.073Z,52.60
2022-12-05T23:01:28.126Z,52.03
2022-12-05T23:04:03.046Z,60.00
2022-12-05T23:06:31.758Z,49.08
2022-12-05T23:09:00.123Z,74.40
2022-12-05T23:11:29.597Z,64.40
2022-12-05T23:14:02.135Z,59.63
2022-12-05T23:16:36.391Z,70.75
2022-12-05T23:19:05.365Z,65.82
2022-12-05T23:21:34.102Z,75.22
2022-12-05T23:24:02.722Z,54.80
2022-12-05T23:26:36.825Z,56.85
2022-12-05T23:29:05.836Z,62.03
2022-12-05T23:31:33.320Z,60.85
2022-12-05T23:34:03.690Z,60.35
2022-12-05T23:36:31.711Z,74.57
2022-12-05T23:38:59.219Z,59.80
2022-12-05T23:41:30.018Z,63.35
2022-12-05T23:44:00.352Z,59.20
2022-12-05T23:46:29.360Z,70.68
2022-12-05T23:48:57.848Z,82.05
2022-12-05T23:51:26.121Z,61.97
2022-12-05T23:53:54.635Z,66.10
2022-12-05T23:56:22.858Z,141.25
2022-12-05T23:58:50.372Z,77.75
